sensor_id;sensor_type;location;lat;lon;timestamp;temperature;humidity
55436;DHT22;41307;53.142;6.430;2023-07-20T00:01:52;15.50;99.90
55436;DHT22;41307;53.142;6.430;2023-07-20T00:04:18;15.50;99.90
55436;DHT22;41307;53.142;6.430;2023-07-20T00:06:44;15.50;99.90
55436;DHT22;41307;53.142;6.430;2023-07-20T00:09:10;15.50;99.90
55436;DHT22;41307;53.142;6.430;2023-07-20T00:11:37;15.50;99.90
55436;DHT22;41307;53.142;6.430;2023-07-20T00:14:06;15.40;99.90
55436;DHT22;41307;53.142;6.430;2023-07-20T00:16:32;15.50;99.90
55436;DHT22;41307;53.142;6.430;2023-07-20T00:18:57;15.50;99.90
55436;DHT22;41307;53.142;6.430;2023-07-20T00:21:23;15.40;99.90
55436;DHT22;41307;53.142;6.430;2023-07-20T00:23:49;15.40;99.90
55436;DHT22;41307;53.142;6.430;2023-07-20T00:26:15;15.30;99.90
55436;DHT22;41307;53.142;6.430;2023-07-20T00:28:40;15.30;99.90
55436;DHT22;41307;53.142;6.430;2023-07-20T00:31:06;15.30;99.90
55436;DHT22;41307;53.142;6.430;2023-07-20T00:33:32;15.30;99.90
55436;DHT22;41307;53.142;6.430;2023-07-20T00:35:58;15.30;99.90
55436;DHT22;41307;53.142;6.430;2023-07-20T00:38:23;15.30;99.90
55436;DHT22;41307;53.142;6.430;2023-07-20T00:40:50;15.20;99.90
55436;DHT22;41307;53.142;6.430;2023-07-20T00:43:16;15.20;99.90
55436;DHT22;41307;53.142;6.430;2023-07-20T00:45:42;15.20;99.90
55436;DHT22;41307;53.142;6.430;2023-07-20T00:48:09;15.10;99.90
55436;DHT22;41307;53.142;6.430;2023-07-20T00:50:35;15.10;99.90
55436;DHT22;41307;53.142;6.430;2023-07-20T00:53:02;15.00;99.90
55436;DHT22;41307;53.142;6.430;2023-07-20T00:55:30;15.00;99.90
55436;DHT22;41307;53.142;6.430;2023-07-20T00:57:57;14.90;99.90
55436;DHT22;41307;53.142;6.430;2023-07-20T01:00:23;14.80;99.90
55436;DHT22;41307;53.142;6.430;2023-07-20T01:02:49;14.70;99.90
55436;DHT22;41307;53.142;6.430;2023-07-20T01:05:15;14.70;99.90
55436;DHT22;41307;53.142;6.430;2023-07-20T01:07:54;14.60;99.90
55436;DHT22;41307;53.142;6.430;2023-07-20T01:10:34;14.50;99.90
55436;DHT22;41307;53.142;6.430;2023-07-20T01:13:02;14.50;99.90
55436;DHT22;41307;53.142;6.430;2023-07-20T01:15:28;14.40;99.90
55436;DHT22;41307;53.142;6.430;2023-07-20T01:17:54;14.40;99.90
55436;DHT22;41307;53.142;6.430;2023-07-20T01:20:21;14.30;99.90
55436;DHT22;41307;53.142;6.430;2023-07-20T01:28:24;14.20;99.90
55436;DHT22;41307;53.142;6.430;2023-07-20T01:33:47;14.10;99.90
55436;DHT22;41307;53.142;6.430;2023-07-20T01:36:14;14.00;99.90
55436;DHT22;41307;53.142;6.430;2023-07-20T01:38:42;14.00;99.90
55436;DHT22;41307;53.142;6.430;2023-07-20T01:41:08;14.00;99.90
55436;DHT22;41307;53.142;6.430;2023-07-20T01:43:34;13.90;99.90
55436;DHT22;41307;53.142;6.430;2023-07-20T01:46:00;13.90;99.90
55436;DHT22;41307;53.142;6.430;2023-07-20T01:48:26;13.80;99.90
55436;DHT22;41307;53.142;6.430;2023-07-20T01:50:51;13.80;99.90
55436;DHT22;41307;53.142;6.430;2023-07-20T01:53:17;13.70;99.90
55436;DHT22;41307;53.142;6.430;2023-07-20T01:55:43;13.70;99.90
55436;DHT22;41307;53.142;6.430;2023-07-20T01:58:09;13.70;99.90
55436;DHT22;41307;53.142;6.430;2023-07-20T02:00:37;13.60;99.90
55436;DHT22;41307;53.142;6.430;2023-07-20T02:03:03;13.60;99.90
55436;DHT22;41307;53.142;6.430;2023-07-20T02:05:28;13.50;99.90
55436;DHT22;41307;53.142;6.430;2023-07-20T02:07:54;13.50;99.90
55436;DHT22;41307;53.142;6.430;2023-07-20T02:10:20;13.40;99.90
55436;DHT22;41307;53.142;6.430;2023-07-20T02:12:46;13.40;99.90
55436;DHT22;41307;53.142;6.430;2023-07-20T02:15:11;13.40;99.90
55436;DHT22;41307;53.142;6.430;2023-07-20T02:17:39;13.40;99.90
55436;DHT22;41307;53.142;6.430;2023-07-20T02:20:07;13.30;99.90
55436;DHT22;41307;53.142;6.430;2023-07-20T02:22:36;13.30;99.90
55436;DHT22;41307;53.142;6.430;2023-07-20T02:25:01;13.20;99.90
55436;DHT22;41307;53.142;6.430;2023-07-20T02:27:27;13.20;99.90
55436;DHT22;41307;53.142;6.430;2023-07-20T02:29:53;13.10;99.90
55436;DHT22;41307;53.142;6.430;2023-07-20T02:32:18;13.10;99.90
55436;DHT22;41307;53.142;6.430;2023-07-20T02:34:44;13.10;99.90
55436;DHT22;41307;53.142;6.430;2023-07-20T02:37:10;13.00;99.90
55436;DHT22;41307;53.142;6.430;2023-07-20T02:39:36;13.00;99.90
55436;DHT22;41307;53.142;6.430;2023-07-20T02:42:01;13.00;99.90
55436;DHT22;41307;53.142;6.430;2023-07-20T02:44:27;13.00;99.90
55436;DHT22;41307;53.142;6.430;2023-07-20T02:46:52;12.90;99.90
55436;DHT22;41307;53.142;6.430;2023-07-20T02:49:18;13.10;99.90
55436;DHT22;41307;53.142;6.430;2023-07-20T02:51:44;13.10;99.90
55436;DHT22;41307;53.142;6.430;2023-07-20T02:54:10;13.10;99.90
55436;DHT22;41307;53.142;6.430;2023-07-20T02:56:35;13.00;99.90
55436;DHT22;41307;53.142;6.430;2023-07-20T02:59:02;13.10;99.90
55436;DHT22;41307;53.142;6.430;2023-07-20T03:01:28;13.10;99.90
55436;DHT22;41307;53.142;6.430;2023-07-20T03:03:58;13.00;99.90
55436;DHT22;41307;53.142;6.430;2023-07-20T03:06:23;13.00;99.90
55436;DHT22;41307;53.142;6.430;2023-07-20T03:08:49;12.90;99.90
55436;DHT22;41307;53.142;6.430;2023-07-20T03:11:19;12.90;99.90
55436;DHT22;41307;53.142;6.430;2023-07-20T03:13:46;12.80;99.90
55436;DHT22;41307;53.142;6.430;2023-07-20T03:16:13;12.80;99.90
55436;DHT22;41307;53.142;6.430;2023-07-20T03:18:43;12.80;99.90
55436;DHT22;41307;53.142;6.430;2023-07-20T03:21:10;12.80;99.90
55436;DHT22;41307;53.142;6.430;2023-07-20T03:23:42;12.80;99.90
55436;DHT22;41307;53.142;6.430;2023-07-20T03:26:08;12.70;99.90
55436;DHT22;41307;53.142;6.430;2023-07-20T03:28:37;12.70;99.90
55436;DHT22;41307;53.142;6.430;2023-07-20T03:31:04;12.70;99.90
55436;DHT22;41307;53.142;6.430;2023-07-20T03:33:31;12.70;99.90
55436;DHT22;41307;53.142;6.430;2023-07-20T03:35:57;12.60;99.90
55436;DHT22;41307;53.142;6.430;2023-07-20T03:38:24;12.60;99.90
55436;DHT22;41307;53.142;6.430;2023-07-20T03:40:58;12.50;99.90
55436;DHT22;41307;53.142;6.430;2023-07-20T03:43:26;12.50;99.90
55436;DHT22;41307;53.142;6.430;2023-07-20T03:45:52;12.50;99.90
55436;DHT22;41307;53.142;6.430;2023-07-20T03:48:22;12.50;99.90
55436;DHT22;41307;53.142;6.430;2023-07-20T03:50:51;12.50;99.90
55436;DHT22;41307;53.142;6.430;2023-07-20T03:53:17;12.40;99.90
55436;DHT22;41307;53.142;6.430;2023-07-20T03:55:50;12.40;99.90
55436;DHT22;41307;53.142;6.430;2023-07-20T03:58:18;12.40;99.90
55436;DHT22;41307;53.142;6.430;2023-07-20T04:00:45;12.40;99.90
55436;DHT22;41307;53.142;6.430;2023-07-20T04:03:11;12.40;99.90
55436;DHT22;41307;53.142;6.430;2023-07-20T04:05:37;12.40;99.90
55436;DHT22;41307;53.142;6.430;2023-07-20T04:08:03;12.40;99.90
55436;DHT22;41307;53.142;6.430;2023-07-20T04:10:29;12.40;99.90
55436;DHT22;41307;53.142;6.430;2023-07-20T04:12:55;12.40;99.90
55436;DHT22;41307;53.142;6.430;2023-07-20T04:15:20;12.40;99.90
55436;DHT22;41307;53.142;6.430;2023-07-20T04:17:46;12.40;99.90
55436;DHT22;41307;53.142;6.430;2023-07-20T04:20:12;12.40;99.90
55436;DHT22;41307;53.142;6.430;2023-07-20T04:22:38;12.40;99.90
55436;DHT22;41307;53.142;6.430;2023-07-20T04:25:04;12.40;99.90
55436;DHT22;41307;53.142;6.430;2023-07-20T04:27:30;12.40;99.90
55436;DHT22;41307;53.142;6.430;2023-07-20T04:29:57;12.50;99.90
55436;DHT22;41307;53.142;6.430;2023-07-20T04:32:24;12.50;99.90
55436;DHT22;41307;53.142;6.430;2023-07-20T04:34:50;12.50;99.90
55436;DHT22;41307;53.142;6.430;2023-07-20T04:37:16;12.90;99.90
55436;DHT22;41307;53.142;6.430;2023-07-20T04:39:41;13.50;99.90
55436;DHT22;41307;53.142;6.430;2023-07-20T04:42:07;13.80;99.90
55436;DHT22;41307;53.142;6.430;2023-07-20T04:44:33;13.70;99.90
55436;DHT22;41307;53.142;6.430;2023-07-20T04:46:58;13.70;99.90
55436;DHT22;41307;53.142;6.430;2023-07-20T04:49:24;13.50;99.90
55436;DHT22;41307;53.142;6.430;2023-07-20T04:51:51;13.40;99.90
55436;DHT22;41307;53.142;6.430;2023-07-20T04:54:17;13.30;99.90
55436;DHT22;41307;53.142;6.430;2023-07-20T04:56:44;13.30;99.90
55436;DHT22;41307;53.142;6.430;2023-07-20T04:59:09;13.30;99.90
55436;DHT22;41307;53.142;6.430;2023-07-20T05:01:35;13.30;99.90
55436;DHT22;41307;53.142;6.430;2023-07-20T05:04:01;13.30;99.90
55436;DHT22;41307;53.142;6.430;2023-07-20T05:06:27;13.40;99.90
55436;DHT22;41307;53.142;6.430;2023-07-20T05:08:53;13.50;99.90
55436;DHT22;41307;53.142;6.430;2023-07-20T05:11:18;13.50;99.90
55436;DHT22;41307;53.142;6.430;2023-07-20T05:13:45;13.60;99.90
55436;DHT22;41307;53.142;6.430;2023-07-20T05:16:11;13.70;99.90
55436;DHT22;41307;53.142;6.430;2023-07-20T05:18:36;13.80;99.90
55436;DHT22;41307;53.142;6.430;2023-07-20T05:21:02;13.90;99.90
55436;DHT22;41307;53.142;6.430;2023-07-20T05:23:28;14.00;99.90
55436;DHT22;41307;53.142;6.430;2023-07-20T05:25:54;14.40;99.90
55436;DHT22;41307;53.142;6.430;2023-07-20T05:28:21;15.50;99.90
55436;DHT22;41307;53.142;6.430;2023-07-20T05:30:47;16.80;99.90
55436;DHT22;41307;53.142;6.430;2023-07-20T05:33:13;17.80;99.90
55436;DHT22;41307;53.142;6.430;2023-07-20T05:35:39;18.20;99.90
55436;DHT22;41307;53.142;6.430;2023-07-20T05:38:05;18.90;99.90
55436;DHT22;41307;53.142;6.430;2023-07-20T05:40:32;20.00;99.90
55436;DHT22;41307;53.142;6.430;2023-07-20T05:42:57;20.90;99.90
55436;DHT22;41307;53.142;6.430;2023-07-20T05:45:24;21.80;99.90
55436;DHT22;41307;53.142;6.430;2023-07-20T05:47:50;22.50;99.90
55436;DHT22;41307;53.142;6.430;2023-07-20T05:50:15;23.20;99.90
55436;DHT22;41307;53.142;6.430;2023-07-20T05:52:41;23.70;99.90
55436;DHT22;41307;53.142;6.430;2023-07-20T05:55:07;24.20;99.90
55436;DHT22;41307;53.142;6.430;2023-07-20T05:57:33;24.50;99.90
55436;DHT22;41307;53.142;6.430;2023-07-20T05:59:59;24.90;99.90
55436;DHT22;41307;53.142;6.430;2023-07-20T06:02:25;25.10;99.90
55436;DHT22;41307;53.142;6.430;2023-07-20T06:04:50;25.30;99.90
55436;DHT22;41307;53.142;6.430;2023-07-20T06:07:16;25.50;99.90
55436;DHT22;41307;53.142;6.430;2023-07-20T06:09:42;25.70;99.90
55436;DHT22;41307;53.142;6.430;2023-07-20T06:12:08;26.10;99.90
55436;DHT22;41307;53.142;6.430;2023-07-20T06:14:34;26.30;99.10
55436;DHT22;41307;53.142;6.430;2023-07-20T06:16:59;26.40;99.20
55436;DHT22;41307;53.142;6.430;2023-07-20T06:19:25;26.80;99.90
55436;DHT22;41307;53.142;6.430;2023-07-20T06:21:51;26.90;99.90
55436;DHT22;41307;53.142;6.430;2023-07-20T06:24:17;27.10;99.90
55436;DHT22;41307;53.142;6.430;2023-07-20T06:26:43;27.20;99.90
55436;DHT22;41307;53.142;6.430;2023-07-20T06:29:09;27.30;98.60
55436;DHT22;41307;53.142;6.430;2023-07-20T06:31:35;27.40;96.30
55436;DHT22;41307;53.142;6.430;2023-07-20T06:34:01;27.40;97.50
55436;DHT22;41307;53.142;6.430;2023-07-20T06:36:27;27.40;94.10
55436;DHT22;41307;53.142;6.430;2023-07-20T06:38:54;27.40;92.90
55436;DHT22;41307;53.142;6.430;2023-07-20T06:41:19;27.40;95.40
55436;DHT22;41307;53.142;6.430;2023-07-20T06:43:45;27.60;95.90
55436;DHT22;41307;53.142;6.430;2023-07-20T06:46:11;27.50;96.10
55436;DHT22;41307;53.142;6.430;2023-07-20T06:48:37;27.50;93.50
55436;DHT22;41307;53.142;6.430;2023-07-20T06:51:02;27.10;94.10
55436;DHT22;41307;53.142;6.430;2023-07-20T06:53:29;26.50;93.90
55436;DHT22;41307;53.142;6.430;2023-07-20T06:55:55;26.20;94.10
55436;DHT22;41307;53.142;6.430;2023-07-20T06:58:23;26.10;93.80
55436;DHT22;41307;53.142;6.430;2023-07-20T07:00:49;25.70;92.60
55436;DHT22;41307;53.142;6.430;2023-07-20T07:03:15;24.90;92.80
55436;DHT22;41307;53.142;6.430;2023-07-20T07:05:41;23.80;93.00
55436;DHT22;41307;53.142;6.430;2023-07-20T07:08:07;23.10;94.70
55436;DHT22;41307;53.142;6.430;2023-07-20T07:10:34;22.70;95.70
55436;DHT22;41307;53.142;6.430;2023-07-20T07:13:00;22.90;96.70
55436;DHT22;41307;53.142;6.430;2023-07-20T07:15:26;23.60;97.70
55436;DHT22;41307;53.142;6.430;2023-07-20T07:17:53;23.50;97.10
55436;DHT22;41307;53.142;6.430;2023-07-20T07:20:18;23.80;96.70
55436;DHT22;41307;53.142;6.430;2023-07-20T07:22:44;24.20;91.60
55436;DHT22;41307;53.142;6.430;2023-07-20T07:25:11;24.60;93.50
55436;DHT22;41307;53.142;6.430;2023-07-20T07:27:36;25.10;93.90
55436;DHT22;41307;53.142;6.430;2023-07-20T07:30:03;25.40;92.80
55436;DHT22;41307;53.142;6.430;2023-07-20T07:32:29;25.90;92.60
55436;DHT22;41307;53.142;6.430;2023-07-20T07:34:54;26.00;91.50
55436;DHT22;41307;53.142;6.430;2023-07-20T07:37:21;25.50;91.30
55436;DHT22;41307;53.142;6.430;2023-07-20T07:39:47;25.70;90.60
55436;DHT22;41307;53.142;6.430;2023-07-20T07:42:12;25.70;88.80
55436;DHT22;41307;53.142;6.430;2023-07-20T07:44:38;26.10;86.20
55436;DHT22;41307;53.142;6.430;2023-07-20T07:47:04;26.50;87.40
55436;DHT22;41307;53.142;6.430;2023-07-20T07:49:31;26.70;84.10
55436;DHT22;41307;53.142;6.430;2023-07-20T07:51:57;26.80;81.80
55436;DHT22;41307;53.142;6.430;2023-07-20T07:54:22;27.30;82.30
55436;DHT22;41307;53.142;6.430;2023-07-20T07:56:48;27.20;81.80
55436;DHT22;41307;53.142;6.430;2023-07-20T07:59:14;27.70;81.70
55436;DHT22;41307;53.142;6.430;2023-07-20T08:01:39;27.90;79.80
55436;DHT22;41307;53.142;6.430;2023-07-20T08:04:08;27.70;78.90
55436;DHT22;41307;53.142;6.430;2023-07-20T08:06:34;28.10;79.70
55436;DHT22;41307;53.142;6.430;2023-07-20T08:08:59;28.70;77.90
55436;DHT22;41307;53.142;6.430;2023-07-20T08:11:25;28.80;77.30
55436;DHT22;41307;53.142;6.430;2023-07-20T08:13:51;28.10;74.00
55436;DHT22;41307;53.142;6.430;2023-07-20T08:16:17;27.30;75.70
55436;DHT22;41307;53.142;6.430;2023-07-20T08:18:43;26.10;75.90
55436;DHT22;41307;53.142;6.430;2023-07-20T08:21:09;24.80;78.10
55436;DHT22;41307;53.142;6.430;2023-07-20T08:23:35;23.90;79.70
55436;DHT22;41307;53.142;6.430;2023-07-20T08:26:00;23.20;81.70
55436;DHT22;41307;53.142;6.430;2023-07-20T08:28:26;22.60;83.50
55436;DHT22;41307;53.142;6.430;2023-07-20T08:30:52;22.50;84.40
55436;DHT22;41307;53.142;6.430;2023-07-20T08:33:19;23.00;85.90
55436;DHT22;41307;53.142;6.430;2023-07-20T08:35:46;23.90;85.30
55436;DHT22;41307;53.142;6.430;2023-07-20T08:38:12;25.10;83.40
55436;DHT22;41307;53.142;6.430;2023-07-20T08:40:47;25.30;81.60
55436;DHT22;41307;53.142;6.430;2023-07-20T08:43:14;24.80;79.70
55436;DHT22;41307;53.142;6.430;2023-07-20T08:45:42;24.50;81.80
55436;DHT22;41307;53.142;6.430;2023-07-20T08:48:11;24.90;81.70
55436;DHT22;41307;53.142;6.430;2023-07-20T08:50:38;25.60;82.10
55436;DHT22;41307;53.142;6.430;2023-07-20T08:53:06;26.00;81.20
55436;DHT22;41307;53.142;6.430;2023-07-20T08:55:32;26.60;80.00
55436;DHT22;41307;53.142;6.430;2023-07-20T08:57:59;26.60;78.40
55436;DHT22;41307;53.142;6.430;2023-07-20T09:00:26;26.10;79.50
55436;DHT22;41307;53.142;6.430;2023-07-20T09:02:53;24.90;78.00
55436;DHT22;41307;53.142;6.430;2023-07-20T09:05:22;24.40;79.00
55436;DHT22;41307;53.142;6.430;2023-07-20T09:07:49;23.80;79.90
55436;DHT22;41307;53.142;6.430;2023-07-20T09:10:14;23.40;80.70
55436;DHT22;41307;53.142;6.430;2023-07-20T09:12:44;23.60;81.80
55436;DHT22;41307;53.142;6.430;2023-07-20T09:15:11;23.60;81.30
55436;DHT22;41307;53.142;6.430;2023-07-20T09:17:37;24.30;81.80
55436;DHT22;41307;53.142;6.430;2023-07-20T09:20:07;25.10;81.60
55436;DHT22;41307;53.142;6.430;2023-07-20T09:22:37;25.80;80.60
55436;DHT22;41307;53.142;6.430;2023-07-20T09:27:45;25.70;79.30
55436;DHT22;41307;53.142;6.430;2023-07-20T09:30:12;25.00;77.10
55436;DHT22;41307;53.142;6.430;2023-07-20T09:32:46;24.50;76.90
55436;DHT22;41307;53.142;6.430;2023-07-20T09:35:17;24.40;77.70
55436;DHT22;41307;53.142;6.430;2023-07-20T09:37:59;24.00;78.00
55436;DHT22;41307;53.142;6.430;2023-07-20T09:40:27;23.40;77.30
55436;DHT22;41307;53.142;6.430;2023-07-20T09:42:53;23.80;79.00
55436;DHT22;41307;53.142;6.430;2023-07-20T09:45:42;24.40;78.50
55436;DHT22;41307;53.142;6.430;2023-07-20T09:48:09;24.90;77.50
55436;DHT22;41307;53.142;6.430;2023-07-20T09:50:43;24.50;78.60
55436;DHT22;41307;53.142;6.430;2023-07-20T09:53:11;24.00;78.00
55436;DHT22;41307;53.142;6.430;2023-07-20T09:55:40;23.50;78.80
55436;DHT22;41307;53.142;6.430;2023-07-20T09:58:08;23.40;79.30
55436;DHT22;41307;53.142;6.430;2023-07-20T10:00:36;23.20;79.40
55436;DHT22;41307;53.142;6.430;2023-07-20T10:03:06;24.00;80.00
55436;DHT22;41307;53.142;6.430;2023-07-20T10:05:33;24.80;79.30
55436;DHT22;41307;53.142;6.430;2023-07-20T10:08:01;25.50;78.70
55436;DHT22;41307;53.142;6.430;2023-07-20T10:10:28;25.70;78.00
55436;DHT22;41307;53.142;6.430;2023-07-20T10:12:57;25.20;77.50
55436;DHT22;41307;53.142;6.430;2023-07-20T10:15:34;24.80;78.30
55436;DHT22;41307;53.142;6.430;2023-07-20T10:18:12;24.30;77.20
55436;DHT22;41307;53.142;6.430;2023-07-20T10:20:41;24.70;79.10
55436;DHT22;41307;53.142;6.430;2023-07-20T10:23:08;25.20;77.60
55436;DHT22;41307;53.142;6.430;2023-07-20T10:25:34;25.70;77.90
55436;DHT22;41307;53.142;6.430;2023-07-20T10:28:07;26.20;78.10
55436;DHT22;41307;53.142;6.430;2023-07-20T10:30:36;26.80;76.60
55436;DHT22;41307;53.142;6.430;2023-07-20T10:33:03;27.00;75.40
55436;DHT22;41307;53.142;6.430;2023-07-20T10:35:30;27.20;75.90
55436;DHT22;41307;53.142;6.430;2023-07-20T10:38:05;27.60;75.10
55436;DHT22;41307;53.142;6.430;2023-07-20T10:40:38;27.60;72.60
55436;DHT22;41307;53.142;6.430;2023-07-20T10:43:05;27.90;71.80
55436;DHT22;41307;53.142;6.430;2023-07-20T10:45:36;27.90;72.80
55436;DHT22;41307;53.142;6.430;2023-07-20T10:48:05;27.70;72.70
55436;DHT22;41307;53.142;6.430;2023-07-20T10:50:35;27.10;72.10
55436;DHT22;41307;53.142;6.430;2023-07-20T10:53:12;27.00;71.50
55436;DHT22;41307;53.142;6.430;2023-07-20T10:55:39;26.80;70.60
55436;DHT22;41307;53.142;6.430;2023-07-20T10:58:12;26.80;72.50
55436;DHT22;41307;53.142;6.430;2023-07-20T11:01:01;26.90;72.70
55436;DHT22;41307;53.142;6.430;2023-07-20T11:03:31;26.70;70.70
55436;DHT22;41307;53.142;6.430;2023-07-20T11:05:58;26.00;71.20
55436;DHT22;41307;53.142;6.430;2023-07-20T11:08:41;25.60;71.40
55436;DHT22;41307;53.142;6.430;2023-07-20T11:11:32;24.90;71.20
55436;DHT22;41307;53.142;6.430;2023-07-20T11:14:02;25.20;72.50
55436;DHT22;41307;53.142;6.430;2023-07-20T11:16:58;25.60;72.40
55436;DHT22;41307;53.142;6.430;2023-07-20T11:19:35;25.80;71.80
55436;DHT22;41307;53.142;6.430;2023-07-20T11:22:04;26.20;72.30
55436;DHT22;41307;53.142;6.430;2023-07-20T11:24:33;26.40;72.70
55436;DHT22;41307;53.142;6.430;2023-07-20T11:26:59;26.40;71.00
55436;DHT22;41307;53.142;6.430;2023-07-20T11:29:26;26.70;72.00
55436;DHT22;41307;53.142;6.430;2023-07-20T11:31:53;26.40;71.60
55436;DHT22;41307;53.142;6.430;2023-07-20T11:34:20;26.00;71.40
55436;DHT22;41307;53.142;6.430;2023-07-20T11:36:48;25.80;71.80
55436;DHT22;41307;53.142;6.430;2023-07-20T11:39:15;25.70;71.90
55436;DHT22;41307;53.142;6.430;2023-07-20T11:41:50;25.10;71.50
55436;DHT22;41307;53.142;6.430;2023-07-20T11:44:20;24.70;72.00
55436;DHT22;41307;53.142;6.430;2023-07-20T11:47:03;24.40;72.30
55436;DHT22;41307;53.142;6.430;2023-07-20T11:49:30;24.20;72.60
55436;DHT22;41307;53.142;6.430;2023-07-20T11:51:56;23.80;73.10
55436;DHT22;41307;53.142;6.430;2023-07-20T11:54:23;23.50;73.60
55436;DHT22;41307;53.142;6.430;2023-07-20T11:56:54;23.20;74.60
55436;DHT22;41307;53.142;6.430;2023-07-20T11:59:20;23.10;74.20
55436;DHT22;41307;53.142;6.430;2023-07-20T12:01:46;23.10;74.30
55436;DHT22;41307;53.142;6.430;2023-07-20T12:04:11;23.10;75.10
55436;DHT22;41307;53.142;6.430;2023-07-20T12:06:37;23.20;75.10
55436;DHT22;41307;53.142;6.430;2023-07-20T12:09:03;23.50;74.80
55436;DHT22;41307;53.142;6.430;2023-07-20T12:11:37;23.70;75.00
55436;DHT22;41307;53.142;6.430;2023-07-20T12:14:07;23.80;74.80
55436;DHT22;41307;53.142;6.430;2023-07-20T12:16:34;24.00;74.90
55436;DHT22;41307;53.142;6.430;2023-07-20T12:19:08;24.30;74.60
55436;DHT22;41307;53.142;6.430;2023-07-20T12:21:35;24.40;73.50
55436;DHT22;41307;53.142;6.430;2023-07-20T12:24:06;24.70;73.90
55436;DHT22;41307;53.142;6.430;2023-07-20T12:26:33;25.10;73.60
55436;DHT22;41307;53.142;6.430;2023-07-20T12:28:59;25.10;72.30
55436;DHT22;41307;53.142;6.430;2023-07-20T12:31:26;24.70;73.00
55436;DHT22;41307;53.142;6.430;2023-07-20T12:33:53;24.20;73.90
55436;DHT22;41307;53.142;6.430;2023-07-20T12:36:21;23.40;77.20
55436;DHT22;41307;53.142;6.430;2023-07-20T12:38:46;22.80;82.50
55436;DHT22;41307;53.142;6.430;2023-07-20T12:41:13;22.30;87.90
55436;DHT22;41307;53.142;6.430;2023-07-20T12:43:42;21.70;93.00
55436;DHT22;41307;53.142;6.430;2023-07-20T12:46:10;21.40;95.70
55436;DHT22;41307;53.142;6.430;2023-07-20T12:48:37;21.30;99.20
55436;DHT22;41307;53.142;6.430;2023-07-20T12:51:04;21.30;99.90
55436;DHT22;41307;53.142;6.430;2023-07-20T12:53:31;21.60;99.90
55436;DHT22;41307;53.142;6.430;2023-07-20T12:55:58;22.00;99.90
55436;DHT22;41307;53.142;6.430;2023-07-20T12:58:24;22.30;99.90
55436;DHT22;41307;53.142;6.430;2023-07-20T13:00:49;22.50;99.90
55436;DHT22;41307;53.142;6.430;2023-07-20T13:03:15;22.60;99.90
55436;DHT22;41307;53.142;6.430;2023-07-20T13:05:42;22.60;99.90
55436;DHT22;41307;53.142;6.430;2023-07-20T13:08:07;22.40;99.90
55436;DHT22;41307;53.142;6.430;2023-07-20T13:10:33;22.40;99.90
55436;DHT22;41307;53.142;6.430;2023-07-20T13:12:59;22.40;99.90
55436;DHT22;41307;53.142;6.430;2023-07-20T13:15:30;22.50;99.90
55436;DHT22;41307;53.142;6.430;2023-07-20T13:17:57;22.60;99.90
55436;DHT22;41307;53.142;6.430;2023-07-20T13:20:24;22.70;99.60
55436;DHT22;41307;53.142;6.430;2023-07-20T13:22:50;22.70;99.20
55436;DHT22;41307;53.142;6.430;2023-07-20T13:25:16;22.90;98.50
55436;DHT22;41307;53.142;6.430;2023-07-20T13:27:42;23.10;96.80
55436;DHT22;41307;53.142;6.430;2023-07-20T13:30:08;23.00;96.90
55436;DHT22;41307;53.142;6.430;2023-07-20T13:32:36;23.10;96.00
55436;DHT22;41307;53.142;6.430;2023-07-20T13:35:02;23.20;95.80
55436;DHT22;41307;53.142;6.430;2023-07-20T13:37:28;23.40;96.40
55436;DHT22;41307;53.142;6.430;2023-07-20T13:39:54;23.10;95.80
55436;DHT22;41307;53.142;6.430;2023-07-20T13:42:20;22.80;95.50
55436;DHT22;41307;53.142;6.430;2023-07-20T13:44:48;22.70;95.60
55436;DHT22;41307;53.142;6.430;2023-07-20T13:47:14;22.70;95.30
55436;DHT22;41307;53.142;6.430;2023-07-20T13:49:39;22.60;94.50
55436;DHT22;41307;53.142;6.430;2023-07-20T13:52:05;22.50;94.00
55436;DHT22;41307;53.142;6.430;2023-07-20T13:54:31;22.30;94.00
55436;DHT22;41307;53.142;6.430;2023-07-20T13:56:57;22.20;93.90
55436;DHT22;41307;53.142;6.430;2023-07-20T13:59:23;22.10;94.40
55436;DHT22;41307;53.142;6.430;2023-07-20T14:01:49;22.00;94.30
55436;DHT22;41307;53.142;6.430;2023-07-20T14:04:15;22.10;94.50
55436;DHT22;41307;53.142;6.430;2023-07-20T14:06:40;22.00;94.50
55436;DHT22;41307;53.142;6.430;2023-07-20T14:09:06;22.00;94.30
55436;DHT22;41307;53.142;6.430;2023-07-20T14:11:32;22.10;94.90
55436;DHT22;41307;53.142;6.430;2023-07-20T14:13:58;21.90;94.70
55436;DHT22;41307;53.142;6.430;2023-07-20T14:16:24;21.90;94.60
55436;DHT22;41307;53.142;6.430;2023-07-20T14:18:50;21.90;94.50
55436;DHT22;41307;53.142;6.430;2023-07-20T14:21:17;22.00;94.20
55436;DHT22;41307;53.142;6.430;2023-07-20T14:23:45;22.10;93.80
55436;DHT22;41307;53.142;6.430;2023-07-20T14:26:12;22.00;94.10
55436;DHT22;41307;53.142;6.430;2023-07-20T14:28:37;22.00;94.00
55436;DHT22;41307;53.142;6.430;2023-07-20T14:31:03;22.00;93.60
55436;DHT22;41307;53.142;6.430;2023-07-20T14:33:29;22.10;93.50
55436;DHT22;41307;53.142;6.430;2023-07-20T14:35:55;22.20;93.60
55436;DHT22;41307;53.142;6.430;2023-07-20T14:38:20;22.10;93.50
55436;DHT22;41307;53.142;6.430;2023-07-20T14:40:46;22.20;93.50
55436;DHT22;41307;53.142;6.430;2023-07-20T14:43:12;22.20;93.60
55436;DHT22;41307;53.142;6.430;2023-07-20T14:45:40;22.10;93.50
55436;DHT22;41307;53.142;6.430;2023-07-20T14:48:09;22.00;93.60
55436;DHT22;41307;53.142;6.430;2023-07-20T14:50:35;21.70;94.10
55436;DHT22;41307;53.142;6.430;2023-07-20T14:53:01;21.60;94.70
55436;DHT22;41307;53.142;6.430;2023-07-20T14:55:26;21.50;94.30
55436;DHT22;41307;53.142;6.430;2023-07-20T14:57:52;21.50;94.30
55436;DHT22;41307;53.142;6.430;2023-07-20T15:00:18;21.50;94.20
55436;DHT22;41307;53.142;6.430;2023-07-20T15:02:44;21.40;94.20
55436;DHT22;41307;53.142;6.430;2023-07-20T15:05:10;21.50;94.70
55436;DHT22;41307;53.142;6.430;2023-07-20T15:07:36;21.80;94.90
55436;DHT22;41307;53.142;6.430;2023-07-20T15:10:03;21.90;94.50
55436;DHT22;41307;53.142;6.430;2023-07-20T15:12:29;21.90;93.90
55436;DHT22;41307;53.142;6.430;2023-07-20T15:15:07;21.70;93.90
55436;DHT22;41307;53.142;6.430;2023-07-20T15:17:34;21.60;94.10
55436;DHT22;41307;53.142;6.430;2023-07-20T15:20:00;21.40;94.60
55436;DHT22;41307;53.142;6.430;2023-07-20T15:22:30;21.50;94.50
55436;DHT22;41307;53.142;6.430;2023-07-20T15:24:56;21.40;94.50
55436;DHT22;41307;53.142;6.430;2023-07-20T15:27:22;21.30;94.50
55436;DHT22;41307;53.142;6.430;2023-07-20T15:29:48;21.10;94.70
55436;DHT22;41307;53.142;6.430;2023-07-20T15:32:14;21.10;94.60
55436;DHT22;41307;53.142;6.430;2023-07-20T15:34:42;21.00;94.60
55436;DHT22;41307;53.142;6.430;2023-07-20T15:37:09;21.00;95.10
55436;DHT22;41307;53.142;6.430;2023-07-20T15:39:36;21.00;95.40
55436;DHT22;41307;53.142;6.430;2023-07-20T15:42:02;21.10;95.10